Time;durP1;ratioP1;P1;durP2;ratioP2;P2;SDS_P1;SDS_P2;PMS_P1;PMS_P2;Temp;Humidity;BMP_temperature;BMP_pressure;BME280_temperature;BME280_humidity;BME280_pressure;Samples;Min_cycle;Max_cycle;Signal;HPM_P1;HPM_P2
2022/06/25 00:02:02;;;;;;;9.98;2.00;;;16.20;99.90;;;;;;5082176;28;20075;-59
2022/06/25 00:07:14;;;;;;;9.65;1.92;;;16.10;99.90;;;;;;5075541;28;20117;-58
2022/06/25 00:09:41;;;;;;;10.57;1.80;;;16.10;99.90;;;;;;5080661;28;20105;-57
2022/06/25 00:14:54;;;;;;;8.57;1.70;;;16.10;99.90;;;;;;5084888;28;20145;-58
2022/06/25 00:17:20;;;;;;;13.70;1.63;;;16.20;99.90;;;;;;5082261;28;20048;-58
2022/06/25 00:19:47;;;;;;;5.78;1.80;;;16.20;99.90;;;;;;5085282;28;20048;-56
2022/06/25 00:22:14;;;;;;;16.98;5.07;;;16.20;99.90;;;;;;5086108;28;20044;-61
2022/06/25 00:24:41;;;;;;;6.57;1.45;;;16.20;99.90;;;;;;5078003;28;20083;-58
2022/06/25 00:27:08;;;;;;;8.43;1.80;;;16.10;99.90;;;;;;5082402;28;20041;-58
2022/06/25 00:29:34;;;;;;;16.35;3.05;;;16.10;99.90;;;;;;5082296;28;20503;-59
2022/06/25 00:32:01;;;;;;;10.07;2.17;;;16.00;99.90;;;;;;5076635;28;20044;-59
2022/06/25 00:34:28;;;;;;;13.25;1.88;;;16.00;99.90;;;;;;5080735;28;20080;-59
2022/06/25 00:36:55;;;;;;;16.00;2.17;;;15.90;99.90;;;;;;5083718;28;20040;-58
2022/06/25 00:39:22;;;;;;;15.07;2.20;;;15.80;99.90;;;;;;5077519;28;20218;-57
2022/06/25 00:41:48;;;;;;;15.90;2.35;;;15.80;99.90;;;;;;5076673;28;20044;-58
2022/06/25 00:44:16;;;;;;;10.00;2.00;;;15.80;99.90;;;;;;5074266;28;20491;-58
2022/06/25 00:46:46;;;;;;;14.07;2.70;;;15.70;99.90;;;;;;5080331;28;20044;-56
2022/06/25 00:49:14;;;;;;;14.43;1.80;;;15.70;99.90;;;;;;5083342;28;20813;-58
2022/06/25 00:51:41;;;;;;;10.98;2.25;;;15.70;99.90;;;;;;5080243;28;20080;-59
2022/06/25 00:54:09;;;;;;;10.20;2.15;;;15.60;99.90;;;;;;5075171;28;20076;-58
2022/06/25 00:56:42;;;;;;;16.80;2.38;;;15.60;99.90;;;;;;5087735;28;20048;-56
2022/06/25 00:59:09;;;;;;;5.68;1.38;;;15.60;99.90;;;;;;5071276;28;20068;-57
2022/06/25 01:01:36;;;;;;;11.93;1.90;;;15.60;99.90;;;;;;5072035;28;20082;-57
2022/06/25 01:04:03;;;;;;;9.82;2.70;;;15.60;99.90;;;;;;5074277;28;20114;-58
2022/06/25 01:06:29;;;;;;;10.02;2.90;;;15.60;99.90;;;;;;5084970;28;20193;-58
2022/06/25 01:08:57;;;;;;;11.02;2.10;;;15.50;99.90;;;;;;5078017;28;20124;-58
2022/06/25 01:11:24;;;;;;;16.67;3.17;;;15.50;99.90;;;;;;5082043;28;20082;-59
2022/06/25 01:13:52;;;;;;;17.08;2.13;;;15.50;99.90;;;;;;4729341;28;9999806;-60
2022/06/25 01:16:22;;;;;;;11.90;2.15;;;15.50;99.90;;;;;;5075380;28;20130;-58
2022/06/25 01:18:49;;;;;;;11.13;2.10;;;15.50;99.90;;;;;;5080487;28;20120;-57
2022/06/25 01:21:16;;;;;;;7.78;1.70;;;15.40;99.90;;;;;;5081202;28;20068;-57
2022/06/25 01:23:43;;;;;;;18.65;2.10;;;15.50;99.90;;;;;;5075444;28;20043;-58
2022/06/25 01:26:09;;;;;;;12.88;2.83;;;15.60;99.90;;;;;;5080147;28;20068;-58
2022/06/25 01:28:36;;;;;;;7.05;1.83;;;15.60;99.90;;;;;;5083083;28;20086;-58
2022/06/25 01:31:03;;;;;;;17.40;2.70;;;15.60;99.90;;;;;;5075928;28;20059;-57
2022/06/25 01:33:30;;;;;;;8.77;2.40;;;15.70;99.90;;;;;;5076086;28;20068;-58
2022/06/25 01:35:57;;;;;;;15.23;2.22;;;15.60;99.90;;;;;;5084402;28;20095;-56
2022/06/25 01:38:23;;;;;;;10.70;1.83;;;15.60;99.90;;;;;;5080294;28;20114;-58
2022/06/25 01:40:51;;;;;;;12.07;4.68;;;15.50;99.90;;;;;;5074064;28;20385;-59
2022/06/25 01:43:17;;;;;;;10.00;2.22;;;15.50;99.90;;;;;;5079202;28;20106;-59
2022/06/25 01:45:44;;;;;;;13.07;3.67;;;15.50;99.90;;;;;;5085838;28;20491;-59
2022/06/25 01:48:11;;;;;;;10.68;1.80;;;15.50;99.90;;;;;;5089557;28;20116;-58
2022/06/25 01:50:38;;;;;;;6.20;1.52;;;15.40;99.90;;;;;;5083292;28;20044;-58
2022/06/25 01:53:06;;;;;;;9.75;2.22;;;15.40;99.90;;;;;;5077915;28;20168;-58
2022/06/25 01:55:32;;;;;;;14.25;1.95;;;15.30;99.90;;;;;;5083954;28;20110;-59
2022/06/25 01:58:00;;;;;;;9.00;1.85;;;15.20;99.90;;;;;;5081862;28;20047;-59
2022/06/25 02:00:28;;;;;;;8.20;1.73;;;15.20;99.90;;;;;;5078431;28;20082;-58
2022/06/25 02:02:55;;;;;;;7.18;1.70;;;15.20;99.90;;;;;;5076230;28;20060;-59
2022/06/25 02:06:08;;;;;;;17.95;2.72;;;15.20;99.90;;;;;;5080003;28;20052;-57
2022/06/25 02:08:11;;;;;;;12.45;1.85;;;15.20;99.90;;;;;;5075460;28;20099;-58
2022/06/25 02:10:37;;;;;;;8.68;1.73;;;15.20;99.90;;;;;;5075605;28;20127;-59
2022/06/25 02:13:04;;;;;;;9.40;2.05;;;15.20;99.90;;;;;;5076395;28;20048;-57
2022/06/25 02:15:31;;;;;;;12.15;1.83;;;15.20;99.90;;;;;;5082401;28;20495;-57
2022/06/25 02:17:58;;;;;;;12.15;2.35;;;15.20;99.90;;;;;;5078356;28;20098;-57
2022/06/25 02:20:25;;;;;;;13.00;2.20;;;15.10;99.90;;;;;;5074737;28;20049;-58
2022/06/25 02:22:52;;;;;;;10.00;2.00;;;15.10;99.90;;;;;;5080840;28;20048;-57
2022/06/25 02:25:19;;;;;;;11.70;2.58;;;15.10;99.90;;;;;;5082062;28;20079;-59
2022/06/25 02:27:46;;;;;;;8.82;2.03;;;15.10;99.90;;;;;;5073563;28;20562;-58
2022/06/25 02:30:12;;;;;;;16.13;2.95;;;15.10;99.90;;;;;;5076257;28;20123;-57
2022/06/25 02:32:39;;;;;;;8.23;2.40;;;15.10;99.90;;;;;;5083339;28;20076;-57
2022/06/25 02:35:06;;;;;;;11.55;1.83;;;15.00;99.90;;;;;;5078176;28;20139;-58
2022/06/25 02:37:33;;;;;;;9.95;2.03;;;15.00;99.90;;;;;;5073183;28;20048;-58
2022/06/25 02:40:00;;;;;;;8.75;2.10;;;15.00;99.90;;;;;;5079664;28;20048;-60
2022/06/25 02:42:35;;;;;;;6.93;1.95;;;14.90;99.90;;;;;;5081919;28;20072;-57
2022/06/25 02:45:02;;;;;;;14.75;2.65;;;14.90;99.90;;;;;;5076933;28;20040;-58
2022/06/25 02:47:29;;;;;;;20.65;2.00;;;15.00;99.90;;;;;;5083473;28;20126;-58
2022/06/25 02:49:56;;;;;;;12.07;1.80;;;14.90;99.90;;;;;;5083542;28;20383;-59
2022/06/25 02:52:23;;;;;;;11.48;2.13;;;14.90;99.90;;;;;;5076140;28;20083;-56
2022/06/25 02:54:50;;;;;;;11.75;2.42;;;14.90;99.90;;;;;;5082549;28;20052;-57
2022/06/25 03:00:04;;;;;;;8.30;2.00;;;14.80;99.90;;;;;;5080737;28;20041;-57
2022/06/25 03:02:31;;;;;;;15.45;5.22;;;14.80;99.90;;;;;;5077932;28;20090;-59
2022/06/25 03:04:57;;;;;;;12.43;2.20;;;14.80;99.90;;;;;;5075299;28;20132;-58
2022/06/25 03:07:24;;;;;;;12.00;2.35;;;14.80;99.90;;;;;;5080232;28;20057;-59
2022/06/25 03:09:51;;;;;;;12.60;1.92;;;14.80;99.90;;;;;;5078981;28;20055;-58
2022/06/25 03:12:18;;;;;;;9.05;1.48;;;14.80;99.90;;;;;;5074536;28;20040;-58
2022/06/25 03:14:45;;;;;;;10.80;2.08;;;14.80;99.90;;;;;;5078830;28;20131;-59
2022/06/25 03:17:12;;;;;;;12.05;2.30;;;14.80;99.90;;;;;;5081523;28;20126;-58
2022/06/25 03:19:38;;;;;;;13.82;2.13;;;14.80;99.90;;;;;;5074270;28;20052;-58
2022/06/25 03:22:05;;;;;;;7.60;1.85;;;14.80;99.90;;;;;;5086392;28;20103;-57
2022/06/25 03:24:32;;;;;;;14.15;2.42;;;14.80;99.90;;;;;;5072654;28;20044;-59
2022/06/25 03:26:59;;;;;;;14.45;1.98;;;14.70;99.90;;;;;;5085585;28;20131;-58
2022/06/25 03:29:25;;;;;;;11.93;1.90;;;14.70;99.90;;;;;;5073088;28;20408;-59
2022/06/25 03:31:52;;;;;;;9.63;1.95;;;14.70;99.90;;;;;;5081971;28;20079;-59
2022/06/25 03:34:19;;;;;;;13.73;2.28;;;14.70;99.90;;;;;;5086528;28;20113;-58
2022/06/25 03:36:46;;;;;;;24.00;5.05;;;14.60;99.90;;;;;;5082558;28;20044;-56
2022/06/25 03:39:12;;;;;;;10.25;2.00;;;14.70;99.90;;;;;;5085871;28;20124;-59
2022/06/25 03:41:39;;;;;;;14.32;1.90;;;14.70;99.90;;;;;;5079999;28;20131;-56
2022/06/25 03:44:10;;;;;;;8.20;1.63;;;14.70;99.90;;;;;;5079640;28;20087;-59
2022/06/25 03:46:38;;;;;;;12.73;2.20;;;14.70;99.90;;;;;;5086872;28;20068;-59
2022/06/25 03:49:05;;;;;;;20.00;3.33;;;14.60;99.90;;;;;;5087199;28;20139;-59
2022/06/25 03:51:32;;;;;;;13.02;2.15;;;14.60;99.90;;;;;;5078643;28;20076;-60
2022/06/25 03:53:59;;;;;;;23.42;3.25;;;14.60;99.90;;;;;;5087070;28;20478;-59
2022/06/25 03:56:26;;;;;;;9.35;2.10;;;14.50;99.90;;;;;;5079858;28;20530;-61
2022/06/25 03:58:53;;;;;;;16.45;3.95;;;14.50;99.90;;;;;;5085331;28;20082;-59
2022/06/25 04:01:23;;;;;;;9.43;2.42;;;14.50;99.90;;;;;;5079989;28;20097;-59
2022/06/25 04:03:50;;;;;;;7.65;1.40;;;14.40;99.90;;;;;;5075932;28;20135;-57
2022/06/25 04:06:17;;;;;;;17.08;2.33;;;14.30;99.90;;;;;;5075203;28;20403;-58
2022/06/25 04:08:44;;;;;;;13.02;1.88;;;14.40;99.90;;;;;;5084534;28;20542;-58
2022/06/25 04:11:11;;;;;;;16.40;2.30;;;14.40;99.90;;;;;;5079227;28;20127;-58
2022/06/25 04:13:38;;;;;;;15.40;2.08;;;14.40;99.90;;;;;;5079376;28;20048;-59
2022/06/25 04:16:04;;;;;;;17.60;3.10;;;14.40;99.90;;;;;;5086485;28;20181;-58
2022/06/25 04:18:32;;;;;;;17.58;3.47;;;14.40;99.90;;;;;;5090419;28;20094;-58
2022/06/25 04:20:59;;;;;;;15.95;1.65;;;14.40;99.90;;;;;;5083436;28;20446;-58
2022/06/25 04:23:26;;;;;;;16.75;2.60;;;14.40;99.90;;;;;;5087370;28;20298;-59
2022/06/25 04:25:54;;;;;;;11.05;2.05;;;14.40;99.90;;;;;;5084987;28;20109;-58
2022/06/25 04:31:06;;;;;;;14.38;2.50;;;14.40;99.90;;;;;;5076037;28;20048;-57
2022/06/25 04:33:33;;;;;;;19.45;2.97;;;14.50;99.90;;;;;;5081954;28;20053;-58
2022/06/25 04:36:00;;;;;;;19.80;3.58;;;14.50;99.90;;;;;;5081721;28;20043;-57
2022/06/25 04:38:27;;;;;;;11.05;2.72;;;14.40;99.90;;;;;;5078266;28;20068;-58
2022/06/25 04:40:53;;;;;;;12.38;2.35;;;14.40;99.90;;;;;;5079659;28;20102;-57
2022/06/25 04:43:21;;;;;;;17.27;2.92;;;14.40;99.90;;;;;;5083074;28;20136;-58
2022/06/25 04:45:48;;;;;;;8.55;2.13;;;14.40;99.90;;;;;;5078729;28;20154;-60
2022/06/25 04:48:14;;;;;;;22.50;2.88;;;14.40;99.90;;;;;;5086097;28;20044;-58
2022/06/25 04:50:43;;;;;;;18.50;2.05;;;14.40;99.90;;;;;;5076928;28;20043;-59
2022/06/25 04:53:11;;;;;;;9.02;3.00;;;14.40;99.90;;;;;;5080458;28;20692;-58
2022/06/25 04:55:38;;;;;;;13.75;3.17;;;14.30;99.90;;;;;;5087876;28;20089;-59
2022/06/25 04:58:05;;;;;;;13.77;2.05;;;14.30;99.90;;;;;;5082714;28;20505;-60
2022/06/25 05:00:32;;;;;;;15.05;2.00;;;14.30;99.90;;;;;;5084670;28;20072;-57
2022/06/25 05:03:06;;;;;;;;;;;14.30;99.90;;;;;;5077542;28;20047;-59
2022/06/25 05:05:33;;;;;;;10.13;1.70;;;14.30;99.90;;;;;;5077764;28;20397;-59
2022/06/25 05:08:00;;;;;;;25.90;2.28;;;14.30;99.90;;;;;;5085271;28;20049;-59
2022/06/25 05:10:27;;;;;;;9.48;2.72;;;14.40;99.90;;;;;;5080436;28;20054;-59
2022/06/25 05:13:12;;;;;;;14.98;2.03;;;14.40;99.90;;;;;;5074755;28;20127;-60
2022/06/25 05:15:42;;;;;;;21.17;3.38;;;14.40;99.90;;;;;;5078973;28;20088;-62
2022/06/25 05:18:10;;;;;;;19.13;2.30;;;14.40;99.90;;;;;;5084982;28;20159;-59
2022/06/25 05:20:42;;;;;;;18.90;2.92;;;14.40;99.90;;;;;;5080015;28;20060;-58
2022/06/25 05:23:08;;;;;;;17.60;3.00;;;14.40;99.90;;;;;;5082330;28;20064;-59
2022/06/25 05:25:35;;;;;;;9.73;2.38;;;14.50;99.90;;;;;;5080918;28;20263;-59
2022/06/25 05:28:02;;;;;;;17.25;3.78;;;14.50;99.90;;;;;;5083767;28;20036;-59
2022/06/25 05:30:29;;;;;;;19.58;2.67;;;14.50;99.90;;;;;;5078609;28;20184;-59
2022/06/25 05:32:56;;;;;;;11.57;2.30;;;14.60;99.90;;;;;;5076385;28;20579;-59
2022/06/25 05:35:23;;;;;;;13.73;3.83;;;14.60;99.90;;;;;;5081542;28;20074;-57
2022/06/25 05:37:50;;;;;;;16.42;2.30;;;14.70;99.90;;;;;;5079205;28;20079;-58
2022/06/25 05:40:17;;;;;;;22.23;2.53;;;14.70;99.90;;;;;;5076215;28;20562;-57
2022/06/25 05:42:44;;;;;;;20.13;3.25;;;14.60;99.90;;;;;;5080209;28;20140;-57
2022/06/25 05:45:10;;;;;;;22.63;3.35;;;14.60;99.90;;;;;;5080442;28;20106;-56
2022/06/25 05:47:37;;;;;;;16.25;2.15;;;14.70;99.90;;;;;;5077553;28;20046;-57
2022/06/25 05:50:05;;;;;;;17.27;2.75;;;14.70;99.90;;;;;;5079340;28;20090;-59
2022/06/25 05:52:32;;;;;;;20.73;4.90;;;14.70;99.90;;;;;;5074676;28;20070;-58
2022/06/25 05:54:59;;;;;;;16.83;2.28;;;14.70;99.90;;;;;;5081211;28;20131;-57
2022/06/25 05:57:26;;;;;;;9.48;2.92;;;14.80;99.90;;;;;;5086766;28;20087;-58
2022/06/25 05:59:53;;;;;;;15.75;2.63;;;14.80;99.90;;;;;;5074630;28;20072;-58
2022/06/25 06:02:20;;;;;;;14.18;2.25;;;14.90;99.90;;;;;;5076543;28;20051;-58
2022/06/25 06:04:47;;;;;;;20.05;3.85;;;14.80;99.90;;;;;;5083885;28;20066;-57
2022/06/25 06:07:14;;;;;;;14.57;2.95;;;14.80;99.90;;;;;;5078523;28;20050;-58
2022/06/25 06:09:40;;;;;;;13.75;2.80;;;14.90;99.90;;;;;;5080941;28;20040;-56
2022/06/25 06:12:07;;;;;;;15.82;3.75;;;14.90;99.90;;;;;;5077793;28;20469;-57
2022/06/25 06:14:34;;;;;;;12.68;2.72;;;15.00;99.90;;;;;;5082964;28;20130;-58
2022/06/25 06:17:01;;;;;;;12.80;3.22;;;15.00;99.90;;;;;;5077418;28;20044;-58
2022/06/25 06:19:28;;;;;;;19.15;2.33;;;15.10;99.90;;;;;;5074404;28;20048;-58
2022/06/25 06:21:55;;;;;;;16.25;2.33;;;15.10;99.90;;;;;;5080226;28;20087;-58
2022/06/25 06:24:21;;;;;;;14.35;2.38;;;15.10;99.90;;;;;;5079314;28;20048;-57
2022/06/25 06:26:48;;;;;;;12.73;2.42;;;15.10;99.90;;;;;;5083928;28;20481;-59
2022/06/25 06:29:17;;;;;;;17.35;3.20;;;15.10;99.90;;;;;;5086596;28;20079;-57
2022/06/25 06:31:44;;;;;;;21.40;5.22;;;15.20;99.90;;;;;;5083929;28;20070;-56
2022/06/25 06:34:11;;;;;;;23.25;3.03;;;15.20;99.90;;;;;;5081730;28;20128;-58
2022/06/25 06:36:37;;;;;;;15.18;3.00;;;15.20;99.90;;;;;;5078084;28;20101;-59
2022/06/25 06:39:04;;;;;;;17.20;3.50;;;15.20;99.90;;;;;;5074165;28;20040;-60
2022/06/25 06:41:31;;;;;;;11.82;2.55;;;15.20;99.90;;;;;;5080169;28;20075;-60
2022/06/25 06:43:58;;;;;;;15.65;2.15;;;15.20;99.90;;;;;;5081966;28;20044;-59
2022/06/25 06:46:25;;;;;;;17.77;3.72;;;15.20;99.90;;;;;;5073118;28;20087;-58
2022/06/25 06:48:52;;;;;;;22.48;5.57;;;15.30;99.90;;;;;;5085546;28;20044;-57
2022/06/25 06:51:18;;;;;;;13.98;2.50;;;15.30;99.90;;;;;;5083271;28;20067;-58
2022/06/25 06:53:45;;;;;;;9.65;3.28;;;15.30;99.90;;;;;;5077983;28;20055;-58
2022/06/25 06:56:12;;;;;;;19.77;5.45;;;15.40;99.90;;;;;;5081626;28;20068;-60
2022/06/25 06:58:39;;;;;;;16.80;2.95;;;15.50;99.90;;;;;;5086736;28;20079;-59
2022/06/25 07:01:06;;;;;;;22.63;2.85;;;15.50;99.90;;;;;;5082237;28;20052;-59
2022/06/25 07:03:33;;;;;;;13.40;2.58;;;15.60;99.90;;;;;;5077890;28;20093;-59
2022/06/25 07:05:59;;;;;;;16.10;3.40;;;15.60;99.90;;;;;;5078869;28;20083;-58
2022/06/25 07:08:26;;;;;;;7.63;1.95;;;15.70;99.90;;;;;;5083899;28;20095;-58
2022/06/25 07:10:53;;;;;;;11.40;2.75;;;15.70;99.90;;;;;;5082894;28;20082;-59
2022/06/25 07:13:20;;;;;;;14.63;3.97;;;15.80;99.90;;;;;;5079067;28;20472;-61
2022/06/25 07:15:47;;;;;;;18.70;2.50;;;15.80;99.90;;;;;;5082822;28;20052;-58
2022/06/25 07:18:13;;;;;;;8.50;2.80;;;15.90;99.90;;;;;;5082519;28;20131;-63
2022/06/25 07:20:40;;;;;;;20.77;3.70;;;15.90;99.90;;;;;;4723989;27;10000476;-60
2022/06/25 07:23:07;;;;;;;18.48;3.85;;;15.90;99.90;;;;;;5078754;28;20052;-59
2022/06/25 07:25:34;;;;;;;21.17;3.75;;;15.80;99.90;;;;;;5107360;27;20141;-59
2022/06/25 07:28:01;;;;;;;12.23;2.08;;;15.70;99.90;;;;;;5081596;28;20079;-59
2022/06/25 07:30:28;;;;;;;12.52;3.03;;;15.70;99.90;;;;;;5082280;28;20092;-59
2022/06/25 07:32:55;;;;;;;10.52;2.53;;;15.80;99.90;;;;;;5073835;28;20135;-58
2022/06/25 07:35:22;;;;;;;13.27;2.65;;;15.70;99.90;;;;;;5076518;28;20147;-59
2022/06/25 07:37:49;;;;;;;17.88;2.92;;;15.70;99.90;;;;;;5082390;28;20052;-59
2022/06/25 07:40:25;;;;;;;11.18;3.03;;;15.70;99.90;;;;;;5079003;28;20047;-59
2022/06/25 07:42:52;;;;;;;12.45;2.60;;;15.80;99.90;;;;;;5073415;28;20045;-58
2022/06/25 07:45:19;;;;;;;14.90;3.08;;;15.90;99.90;;;;;;5078604;28;20110;-59
2022/06/25 07:47:46;;;;;;;15.40;2.83;;;16.00;99.90;;;;;;5081161;28;20036;-59
2022/06/25 07:52:58;;;;;;;14.18;3.95;;;16.20;99.90;;;;;;5084972;28;20097;-60
2022/06/25 07:55:25;;;;;;;15.57;2.70;;;16.30;99.90;;;;;;5073502;28;20415;-60
2022/06/25 07:57:52;;;;;;;15.40;3.92;;;16.50;99.90;;;;;;5079660;28;20110;-61
2022/06/25 08:00:19;;;;;;;16.15;2.97;;;16.60;99.90;;;;;;5075448;28;20044;-59
2022/06/25 08:02:46;;;;;;;17.92;3.15;;;16.70;99.90;;;;;;5076064;28;20117;-59
2022/06/25 08:05:12;;;;;;;12.65;2.25;;;16.80;99.90;;;;;;5080849;28;20135;-59
2022/06/25 08:07:39;;;;;;;11.57;2.40;;;16.90;99.90;;;;;;5077265;28;20146;-59
2022/06/25 08:10:07;;;;;;;7.55;1.52;;;16.90;99.90;;;;;;5075092;28;20700;-60
2022/06/25 08:12:34;;;;;;;7.35;2.28;;;17.00;99.90;;;;;;5086702;28;20048;-60
2022/06/25 08:15:00;;;;;;;14.73;3.00;;;17.00;99.90;;;;;;5076019;28;20617;-59
2022/06/25 08:17:27;;;;;;;13.18;3.45;;;17.10;99.90;;;;;;5081676;28;20114;-59
2022/06/25 08:19:54;;;;;;;14.27;2.80;;;17.20;99.90;;;;;;5076422;28;20172;-61
2022/06/25 08:22:21;;;;;;;13.02;2.95;;;17.20;99.90;;;;;;5083589;28;20207;-62
2022/06/25 08:24:48;;;;;;;14.70;2.67;;;17.30;99.90;;;;;;5081871;28;20048;-60
2022/06/25 08:27:15;;;;;;;11.65;3.60;;;17.40;99.90;;;;;;5081686;28;20040;-60
2022/06/25 08:29:42;;;;;;;18.73;4.18;;;17.50;99.90;;;;;;5074377;28;20072;-61
2022/06/25 08:32:09;;;;;;;7.82;2.08;;;17.50;99.90;;;;;;5079360;28;20049;-60
2022/06/25 08:34:35;;;;;;;15.88;2.75;;;17.50;99.90;;;;;;5083603;28;20076;-56
2022/06/25 08:37:04;;;;;;;9.70;2.35;;;17.50;99.90;;;;;;5077275;28;20075;-60
2022/06/25 08:39:32;;;;;;;18.40;3.10;;;17.40;99.90;;;;;;5084784;28;20083;-59
2022/06/25 08:42:00;;;;;;;11.65;2.55;;;17.30;99.90;;;;;;5076397;28;20098;-59
2022/06/25 08:44:26;;;;;;;17.25;2.55;;;17.30;99.90;;;;;;5074087;28;20500;-59
2022/06/25 08:46:53;;;;;;;12.35;2.30;;;17.20;99.90;;;;;;5082401;28;20502;-59
2022/06/25 08:49:20;;;;;;;13.55;2.30;;;17.20;99.90;;;;;;5069153;28;20052;-59
2022/06/25 08:51:47;;;;;;;10.60;2.10;;;17.30;99.90;;;;;;5073188;28;20087;-59
2022/06/25 08:54:14;;;;;;;8.63;2.05;;;17.40;99.90;;;;;;5076004;28;20535;-57
2022/06/25 08:56:41;;;;;;;15.27;2.15;;;17.50;99.90;;;;;;5079304;28;20056;-60
2022/06/25 08:59:08;;;;;;;11.15;2.05;;;17.70;99.90;;;;;;5074444;28;20036;-59
2022/06/25 09:01:35;;;;;;;13.40;2.42;;;17.80;99.90;;;;;;5075668;28;20136;-58
2022/06/25 09:04:02;;;;;;;15.20;2.60;;;17.90;99.90;;;;;;5080529;28;20048;-61
2022/06/25 09:06:29;;;;;;;10.25;2.30;;;17.90;99.90;;;;;;5075633;28;20052;-60
2022/06/25 09:09:13;;;;;;;14.52;2.88;;;17.90;99.90;;;;;;5070806;28;20174;-60
2022/06/25 09:11:57;;;;;;;7.22;2.30;;;18.10;98.40;;;;;;5075899;28;20063;-60
2022/06/25 09:14:29;;;;;;;8.65;2.53;;;18.30;99.10;;;;;;5071477;28;20490;-60
2022/06/25 09:17:01;;;;;;;9.43;2.25;;;18.40;99.30;;;;;;5076913;28;20053;-59
2022/06/25 09:19:44;;;;;;;10.15;2.22;;;18.50;99.70;;;;;;5081521;28;20126;-60
2022/06/25 09:22:21;;;;;;;11.13;2.38;;;18.50;96.70;;;;;;5076225;28;20040;-60
2022/06/25 09:24:52;;;;;;;12.85;1.90;;;18.40;98.20;;;;;;5078860;28;20051;-60
2022/06/25 09:27:20;;;;;;;9.30;2.15;;;18.50;97.50;;;;;;5078172;28;20052;-60
2022/06/25 09:29:49;;;;;;;10.55;1.90;;;18.40;98.50;;;;;;5084817;28;20076;-61
2022/06/25 09:32:16;;;;;;;14.63;2.90;;;18.40;98.10;;;;;;5077060;28;20158;-59
2022/06/25 09:34:43;;;;;;;7.72;2.60;;;18.50;98.40;;;;;;5073786;28;20106;-59
2022/06/25 09:37:22;;;;;;;10.50;4.55;;;18.60;97.30;;;;;;5081779;28;20090;-59
2022/06/25 09:39:50;;;;;;;10.52;2.45;;;18.60;95.10;;;;;;5080847;28;20131;-59
2022/06/25 09:42:23;;;;;;;9.82;2.35;;;18.70;95.40;;;;;;5071468;28;20043;-60
2022/06/25 09:45:01;;;;;;;15.37;2.27;;;18.90;95.20;;;;;;5074705;28;20049;-58
2022/06/25 09:47:27;;;;;;;10.50;2.35;;;18.90;95.00;;;;;;5076830;28;20285;-59
2022/06/25 09:50:08;;;;;;;11.25;3.30;;;19.00;95.90;;;;;;5086202;28;20293;-59
2022/06/25 09:52:36;;;;;;;10.93;2.85;;;19.10;94.10;;;;;;5072683;28;20102;-60
2022/06/25 09:55:08;;;;;;;11.88;2.55;;;19.20;95.80;;;;;;5080290;28;20048;-60
2022/06/25 09:57:35;;;;;;;9.52;2.72;;;19.20;95.20;;;;;;5072963;28;20047;-59
2022/06/25 10:00:03;;;;;;;10.02;1.90;;;19.20;95.40;;;;;;5077984;28;20418;-59
2022/06/25 10:02:30;;;;;;;9.15;2.15;;;19.20;93.90;;;;;;5073225;28;20487;-59
2022/06/25 10:05:01;;;;;;;10.57;2.30;;;19.30;94.90;;;;;;5061174;28;20087;-61
2022/06/25 10:10:19;;;;;;;9.27;2.22;;;19.30;94.50;;;;;;5078716;28;20083;-59
2022/06/25 10:12:47;;;;;;;11.80;2.20;;;19.40;93.10;;;;;;5079549;28;20093;-59
2022/06/25 10:15:20;;;;;;;8.20;2.13;;;19.50;92.80;;;;;;5077230;28;20140;-60
2022/06/25 10:17:48;;;;;;;6.28;1.88;;;19.70;93.10;;;;;;5085863;28;20132;-59
2022/06/25 10:20:16;;;;;;;14.95;2.08;;;19.90;93.60;;;;;;5077384;28;20102;-59
2022/06/25 10:22:43;;;;;;;7.13;2.15;;;19.80;92.70;;;;;;5075031;28;20444;-60
2022/06/25 10:25:11;;;;;;;27.38;4.25;;;19.70;93.00;;;;;;5078289;28;20040;-60
2022/06/25 10:27:46;;;;;;;8.23;1.85;;;19.60;93.40;;;;;;5078747;28;20481;-60
2022/06/25 10:30:13;;;;;;;8.23;1.80;;;19.70;90.90;;;;;;5081479;28;20083;-60
2022/06/25 10:32:47;;;;;;;11.77;2.22;;;19.90;91.80;;;;;;5078209;28;20069;-60
2022/06/25 10:35:33;;;;;;;8.30;2.05;;;20.20;89.60;;;;;;5080398;28;20227;-60
2022/06/25 10:38:05;;;;;;;7.30;1.98;;;20.50;89.10;;;;;;5080060;28;20048;-60
2022/06/25 10:40:33;;;;;;;5.80;2.65;;;20.80;91.20;;;;;;5083214;28;20140;-60
2022/06/25 10:43:04;;;;;;;11.32;3.10;;;20.70;90.40;;;;;;5077439;28;20083;-60
2022/06/25 10:45:31;;;;;;;10.82;2.03;;;20.40;87.40;;;;;;5075896;28;20044;-60
2022/06/25 10:47:58;;;;;;;11.52;1.83;;;20.10;90.50;;;;;;5079783;28;20601;-60
2022/06/25 10:50:25;;;;;;;11.13;2.10;;;20.00;90.80;;;;;;5080324;28;20048;-59
2022/06/25 10:53:05;;;;;;;9.82;2.17;;;19.90;90.40;;;;;;5074646;28;20379;-62
2022/06/25 10:55:48;;;;;;;6.90;1.70;;;19.90;87.40;;;;;;5077457;28;20051;-60
2022/06/25 10:58:23;;;;;;;9.63;1.70;;;19.90;84.10;;;;;;5078984;28;20036;-59
2022/06/25 11:00:54;;;;;;;8.40;2.00;;;19.80;88.80;;;;;;5080813;28;20454;-60
2022/06/25 11:03:27;;;;;;;9.23;2.20;;;19.80;89.80;;;;;;5075734;28;20075;-59
2022/06/25 11:06:14;;;;;;;6.82;2.08;;;19.80;88.10;;;;;;5074694;28;20131;-59
2022/06/25 11:08:41;;;;;;;13.20;2.70;;;19.90;90.90;;;;;;5077508;28;20127;-60
2022/06/25 11:11:08;;;;;;;7.80;1.77;;;20.00;90.50;;;;;;5080124;28;20052;-60
2022/06/25 11:13:35;;;;;;;9.27;1.80;;;20.00;90.50;;;;;;5074708;28;20105;-62
2022/06/25 11:16:12;;;;;;;6.85;2.22;;;19.90;88.60;;;;;;5074526;28;20098;-61
2022/06/25 11:18:49;;;;;;;11.20;2.22;;;19.90;89.10;;;;;;5071458;28;20045;-59
2022/06/25 11:21:34;;;;;;;6.22;1.75;;;19.90;89.40;;;;;;5079011;28;20076;-58
2022/06/25 11:24:14;;;;;;;11.65;2.50;;;19.70;85.80;;;;;;5071403;28;20040;-58
2022/06/25 11:29:50;;;;;;;11.65;2.55;;;19.60;85.90;;;;;;5075732;28;20056;-59
2022/06/25 11:32:20;;;;;;;8.40;2.13;;;19.70;85.60;;;;;;5082328;28;20044;-58
2022/06/25 11:34:53;;;;;;;6.88;2.53;;;19.80;83.70;;;;;;5076644;28;20052;-59
2022/06/25 11:37:20;;;;;;;11.68;2.17;;;19.80;84.50;;;;;;5071778;28;20567;-59
2022/06/25 11:39:47;;;;;;;8.38;1.95;;;19.90;87.00;;;;;;5073197;28;20207;-61
2022/06/25 11:42:15;;;;;;;6.35;1.60;;;20.00;86.20;;;;;;5076897;28;20048;-59
2022/06/25 11:44:44;;;;;;;8.82;1.77;;;19.90;85.20;;;;;;5072164;28;20060;-58
2022/06/25 11:47:14;;;;;;;8.02;1.70;;;20.00;87.40;;;;;;5078390;28;20518;-59
2022/06/25 11:49:42;;;;;;;11.90;2.42;;;20.00;86.20;;;;;;5080682;28;20075;-59
2022/06/25 11:52:10;;;;;;;4.95;1.48;;;20.00;87.00;;;;;;5092362;28;20253;-59
2022/06/25 11:54:37;;;;;;;8.30;1.85;;;20.00;87.00;;;;;;5081970;28;20098;-59
2022/06/25 11:57:05;;;;;;;9.20;1.90;;;20.00;87.60;;;;;;5072811;28;20381;-60
2022/06/25 11:59:36;;;;;;;8.50;2.10;;;19.90;85.30;;;;;;5081701;28;20119;-59
2022/06/25 12:02:07;;;;;;;10.18;2.67;;;19.80;85.90;;;;;;5074496;28;20040;-60
2022/06/25 12:04:56;;;;;;;7.35;1.67;;;19.90;83.40;;;;;;5073109;28;20273;-59
2022/06/25 12:07:27;;;;;;;10.73;2.13;;;19.90;83.80;;;;;;5071576;28;20052;-59
2022/06/25 12:09:56;;;;;;;6.40;1.45;;;19.90;86.20;;;;;;5080146;28;20506;-59
2022/06/25 12:12:23;;;;;;;10.32;2.58;;;20.00;86.90;;;;;;5073684;28;20044;-59
2022/06/25 12:14:51;;;;;;;8.40;3.40;;;20.00;87.80;;;;;;5085450;28;20550;-60
2022/06/25 12:17:18;;;;;;;9.02;1.98;;;20.20;88.10;;;;;;5081091;28;20048;-60
2022/06/25 12:19:52;;;;;;;9.57;2.83;;;20.40;87.00;;;;;;5077102;28;20499;-61
2022/06/25 12:22:23;;;;;;;10.00;2.10;;;20.30;82.40;;;;;;5081523;28;20458;-60
2022/06/25 12:24:51;;;;;;;9.13;2.05;;;20.20;84.10;;;;;;5077064;28;20051;-59
2022/06/25 12:27:18;;;;;;;9.50;2.00;;;20.20;83.70;;;;;;5072648;28;20056;-60
2022/06/25 12:29:50;;;;;;;10.85;1.77;;;20.30;85.80;;;;;;5087783;28;20135;-59
2022/06/25 12:32:17;;;;;;;10.73;2.87;;;20.50;84.30;;;;;;5084955;28;20534;-60
2022/06/25 12:34:51;;;;;;;8.70;1.85;;;20.60;82.10;;;;;;5076767;28;20067;-59
2022/06/25 12:37:31;;;;;;;9.43;2.13;;;20.70;78.60;;;;;;5076865;28;20540;-61
2022/06/25 12:39:59;;;;;;;11.05;2.03;;;20.70;80.00;;;;;;5079019;28;20040;-59
2022/06/25 12:42:29;;;;;;;7.13;1.80;;;20.80;82.50;;;;;;5118483;27;20083;-59
2022/06/25 12:44:56;;;;;;;10.15;1.80;;;21.00;80.50;;;;;;5080653;28;20055;-60
2022/06/25 12:47:23;;;;;;;10.82;2.35;;;21.20;82.80;;;;;;5078832;28;20044;-60
2022/06/25 12:49:54;;;;;;;7.63;2.30;;;21.30;82.20;;;;;;5087042;28;20130;-59
2022/06/25 12:52:35;;;;;;;13.35;2.75;;;21.40;80.10;;;;;;5075236;28;20534;-59
2022/06/25 12:55:02;;;;;;;9.68;2.10;;;21.30;80.10;;;;;;5086777;28;20044;-60
2022/06/25 12:57:31;;;;;;;8.95;2.17;;;21.20;79.10;;;;;;5080559;28;20044;-59
2022/06/25 12:59:59;;;;;;;12.07;2.45;;;21.20;80.00;;;;;;5074299;28;20123;-59
2022/06/25 13:02:32;;;;;;;10.48;1.98;;;21.20;80.10;;;;;;5083721;28;20044;-59
2022/06/25 13:05:00;;;;;;;7.43;2.55;;;21.10;79.80;;;;;;5082752;28;20108;-61
2022/06/25 13:07:27;;;;;;;7.07;2.20;;;21.00;79.40;;;;;;5082376;28;20056;-59